Time;durP1;ratioP1;P1;durP2;ratioP2;P2;SDS_P1;SDS_P2;PMS_P1;PMS_P2;Temp;Humidity;BMP_temperature;BMP_pressure;BME280_temperature;BME280_humidity;BME280_pressure;Samples;Min_cycle;Max_cycle;Signal;HPM_P1;HPM_P2
2024/04/24 00:00:08;;;;;;;6.85;1.70;;;;;;;6.49;65.16;100619.97;5492786;26;20344;-50
2024/04/24 00:02:34;;;;;;;4.57;1.65;;;;;;;6.50;64.89;100624.28;5503805;26;20008;-46
2024/04/24 00:05:02;;;;;;;5.72;1.55;;;;;;;6.53;64.94;100621.78;5512062;25;20020;-46
2024/04/24 00:07:28;;;;;;;4.55;1.55;;;;;;;6.52;65.00;100613.16;5500261;25;20016;-48
2024/04/24 00:09:56;;;;;;;3.22;1.00;;;;;;;6.54;64.70;100614.09;5503293;25;20001;-48
2024/04/24 00:12:22;;;;;;;6.80;1.30;;;;;;;6.55;64.88;100612.38;5493308;25;19998;-45
2024/04/24 00:14:49;;;;;;;2.92;1.52;;;;;;;6.55;64.70;100612.38;5487047;25;20001;-46
2024/04/24 00:17:16;;;;;;;4.35;1.67;;;;;;;6.56;64.85;100608.97;5511761;26;20563;-56
2024/04/24 00:19:43;;;;;;;2.58;0.75;;;;;;;6.54;64.70;100601.22;5509183;26;20577;-50
2024/04/24 00:22:10;;;;;;;6.85;1.27;;;;;;;6.55;64.87;100604.66;5507157;26;19997;-48
2024/04/24 00:24:36;;;;;;;3.58;1.20;;;;;;;6.53;64.70;100596.03;5501820;26;20416;-49
2024/04/24 00:27:03;;;;;;;3.05;1.10;;;;;;;6.53;64.32;100596.91;5521589;25;20098;-49
2024/04/24 00:29:30;;;;;;;5.20;1.13;;;;;;;6.55;64.64;100589.19;5512294;25;20033;-47
2024/04/24 00:32:04;;;;;;;4.70;1.15;;;;;;;6.55;64.51;100589.19;5492968;26;20006;-49
2024/04/24 00:34:32;;;;;;;9.00;1.63;;;;;;;6.56;64.17;100590.97;5507125;26;20076;-46
2024/04/24 00:36:58;;;;;;;12.15;2.08;;;;;;;6.55;64.80;100578.91;5500512;26;20075;-46
2024/04/24 00:39:25;;;;;;;6.47;1.17;;;;;;;6.55;64.63;100577.22;5500181;26;20747;-46
2024/04/24 00:41:52;;;;;;;6.30;1.38;;;;;;;6.55;64.61;100573.75;5484004;26;19997;-46
2024/04/24 00:44:19;;;;;;;3.63;0.98;;;;;;;6.55;64.60;100578.91;5508651;25;20002;-48
2024/04/24 00:46:46;;;;;;;5.32;1.23;;;;;;;6.54;64.57;100569.47;5497285;26;20058;-47
2024/04/24 00:49:13;;;;;;;6.03;1.25;;;;;;;6.53;64.73;100572.88;5504179;26;20005;-49
2024/04/24 00:51:42;;;;;;;3.85;1.50;;;;;;;6.55;64.78;100569.50;5519189;25;20019;-47
2024/04/24 00:54:09;;;;;;;8.85;2.20;;;;;;;6.54;64.72;100564.31;5466666;26;19997;-47
2024/04/24 00:56:36;;;;;;;5.38;1.05;;;;;;;6.54;64.79;100559.16;5488416;25;20034;-49
2024/04/24 00:59:03;;;;;;;6.60;1.20;;;;;;;6.54;64.78;100564.31;5516015;25;20013;-48
2024/04/24 01:01:30;;;;;;;11.77;1.35;;;;;;;6.53;64.96;100560.88;5512337;25;20327;-46
2024/04/24 01:03:57;;;;;;;3.03;1.20;;;;;;;6.51;65.02;100553.94;5503342;25;20009;-48
2024/04/24 01:06:23;;;;;;;4.47;0.95;;;;;;;6.50;64.79;100547.06;5495793;26;20024;-47
2024/04/24 01:08:50;;;;;;;6.60;1.33;;;;;;;6.51;64.98;100547.09;5513366;26;20346;-47
2024/04/24 01:11:17;;;;;;;4.88;2.03;;;;;;;6.53;64.57;100549.72;5487329;26;20018;-47
2024/04/24 01:13:44;;;;;;;7.88;1.48;;;;;;;6.52;64.81;100543.69;5531366;25;20001;-45
2024/04/24 01:16:16;;;;;;;2.95;0.93;;;;;;;6.52;65.02;100537.69;5503709;25;20002;-48
2024/04/24 01:18:49;;;;;;;4.75;1.02;;;;;;;6.52;64.83;100538.53;5513486;25;20078;-47
2024/04/24 01:21:17;;;;;;;6.28;1.13;;;;;;;6.54;64.48;100536.00;5479004;26;20423;-45
2024/04/24 01:24:00;;;;;;;5.78;0.90;;;;;;;6.53;64.73;100540.31;5503002;26;20010;-45
2024/04/24 01:26:38;;;;;;;8.07;2.08;;;;;;;6.54;64.84;100530.84;5503910;25;20117;-47
2024/04/24 01:29:05;;;;;;;2.53;1.20;;;;;;;6.53;65.09;100532.56;5502136;26;20014;-48
2024/04/24 01:31:32;;;;;;;6.60;2.22;;;;;;;6.54;64.77;100530.84;5505122;25;20493;-45
2024/04/24 01:33:59;;;;;;;9.63;1.95;;;;;;;6.56;64.92;100529.19;5499976;26;19997;-47
2024/04/24 01:36:26;;;;;;;3.83;1.08;;;;;;;6.56;65.09;100524.03;5491660;25;20006;-47
2024/04/24 01:38:52;;;;;;;7.93;1.52;;;;;;;6.56;65.04;100518.91;5468895;26;20018;-46
2024/04/24 01:41:19;;;;;;;5.75;1.40;;;;;;;6.56;65.08;100518.91;5511746;26;20077;-50
2024/04/24 01:43:46;;;;;;;10.43;1.25;;;;;;;6.55;65.17;100519.72;5516372;25;19998;-49
2024/04/24 01:46:13;;;;;;;6.97;1.27;;;;;;;6.54;65.40;100515.41;5498436;25;20016;-49
2024/04/24 01:48:40;;;;;;;8.70;1.50;;;;;;;6.54;65.35;100515.41;5511828;26;20024;-48
2024/04/24 01:51:07;;;;;;;4.28;1.38;;;;;;;6.53;65.39;100513.69;5493930;26;20764;-48
2024/04/24 01:53:33;;;;;;;4.35;1.77;;;;;;;6.53;65.44;100511.09;5507759;25;20141;-49
2024/04/24 01:56:00;;;;;;;2.15;1.08;;;;;;;6.52;65.35;100507.66;5505467;26;20031;-46
2024/04/24 01:58:27;;;;;;;4.38;2.50;;;;;;;6.52;65.34;100506.81;5495652;25;20858;-47
2024/04/24 02:00:54;;;;;;;6.57;1.08;;;;;;;6.52;65.52;100514.53;5510021;26;20008;-45
2024/04/24 02:03:20;;;;;;;9.50;1.60;;;;;;;6.51;65.44;100505.03;5498387;26;20046;-47
2024/04/24 02:05:47;;;;;;;7.85;1.67;;;;;;;6.50;65.51;100503.31;5500583;25;20038;-49
2024/04/24 02:08:14;;;;;;;5.05;1.35;;;;;;;6.51;65.29;100500.78;5499415;25;20005;-47
2024/04/24 02:10:41;;;;;;;7.40;1.25;;;;;;;6.51;65.54;100505.91;5483675;25;20005;-48
2024/04/24 02:13:08;;;;;;;5.65;1.17;;;;;;;6.52;65.48;100504.22;5520835;25;20001;-47
2024/04/24 02:15:35;;;;;;;8.25;1.35;;;;;;;6.51;65.66;100502.47;5506255;26;20550;-47
2024/04/24 02:18:04;;;;;;;3.13;1.52;;;;;;;6.52;65.67;100499.09;5509815;26;19994;-47
2024/04/24 02:20:33;;;;;;;10.27;1.30;;;;;;;6.48;65.68;100492.97;5496114;26;20010;-46
2024/04/24 02:23:07;;;;;;;10.23;2.47;;;;;;;6.47;65.53;100498.09;5506064;26;20719;-46
2024/04/24 02:25:34;;;;;;;4.43;1.48;;;;;;;6.49;65.75;100496.44;5505414;26;20021;-47
2024/04/24 02:28:05;;;;;;;6.90;1.08;;;;;;;6.49;65.59;100497.28;5508760;25;20005;-47
2024/04/24 02:30:32;;;;;;;6.18;1.63;;;;;;;6.47;65.73;100496.41;5492167;25;20069;-47
2024/04/24 02:32:59;;;;;;;4.18;1.48;;;;;;;6.49;65.85;100496.44;5493911;26;20006;-46
2024/04/24 02:35:26;;;;;;;0.98;0.63;;;;;;;6.47;65.65;100490.38;5504442;26;19998;-47
2024/04/24 02:37:53;;;;;;;10.10;1.50;;;;;;;6.46;65.89;100492.09;5495853;25;19994;-46
2024/04/24 02:40:20;;;;;;;11.20;2.35;;;;;;;6.46;65.61;100486.06;5462833;26;20012;-47
2024/04/24 02:42:46;;;;;;;2.08;1.00;;;;;;;6.41;65.85;100485.97;5509532;25;20009;-46
2024/04/24 02:45:13;;;;;;;3.22;1.30;;;;;;;6.42;65.95;100493.72;5504018;25;20023;-50
2024/04/24 02:47:40;;;;;;;5.82;1.55;;;;;;;6.43;65.44;100492.88;5500693;25;20089;-62
2024/04/24 02:50:07;;;;;;;4.82;2.20;;;;;;;6.41;65.68;100489.41;5498052;25;20754;-48
2024/04/24 02:52:34;;;;;;;5.13;1.27;;;;;;;6.41;65.69;100483.41;5496591;25;20016;-47
2024/04/24 02:55:01;;;;;;;5.78;1.38;;;;;;;6.43;65.69;100486.88;5508408;25;20016;-50
2024/04/24 02:57:28;;;;;;;4.70;1.45;;;;;;;6.41;65.79;100486.84;5507661;25;20018;-46
2024/04/24 02:59:55;;;;;;;9.15;2.33;;;;;;;6.41;66.06;100484.28;5495521;25;20048;-46
2024/04/24 03:02:22;;;;;;;5.80;1.15;;;;;;;6.39;65.89;100480.78;5492665;25;20010;-47
2024/04/24 03:04:48;;;;;;;6.07;2.20;;;;;;;6.40;65.99;100472.25;5507195;25;20009;-47
2024/04/24 03:07:15;;;;;;;6.80;1.15;;;;;;;6.39;65.86;100470.50;5502827;25;20069;-46
2024/04/24 03:09:42;;;;;;;9.50;1.30;;;;;;;6.40;65.94;100467.09;5497600;26;20021;-48
2024/04/24 03:12:09;;;;;;;7.38;1.15;;;;;;;6.38;65.99;100467.91;5511489;25;20013;-46
2024/04/24 03:14:35;;;;;;;7.07;1.55;;;;;;;6.40;65.89;100466.22;5510522;26;19997;-46
2024/04/24 03:17:02;;;;;;;4.97;0.90;;;;;;;6.39;66.08;100470.50;5503291;26;20047;-46
2024/04/24 03:19:29;;;;;;;4.93;1.77;;;;;;;6.40;65.84;100461.97;5506567;25;20017;-46
2024/04/24 03:21:56;;;;;;;5.50;1.40;;;;;;;6.40;65.99;100467.09;5494240;25;20413;-47
2024/04/24 03:24:23;;;;;;;2.53;1.35;;;;;;;6.38;66.16;100463.63;5512936;25;20088;-46
2024/04/24 03:26:49;;;;;;;10.43;0.82;;;;;;;6.39;66.01;100467.06;5512504;25;20086;-46
2024/04/24 03:29:16;;;;;;;2.17;1.38;;;;;;;6.39;65.73;100460.19;5493798;25;20005;-46
2024/04/24 03:31:47;;;;;;;8.63;1.00;;;;;;;6.39;65.95;100460.19;5493855;25;20014;-46
2024/04/24 03:34:14;;;;;;;4.10;1.17;;;;;;;6.40;65.76;100456.81;5498967;25;20137;-46
2024/04/24 03:36:40;;;;;;;3.97;1.13;;;;;;;6.40;65.81;100453.34;5504798;25;20015;-45
2024/04/24 03:39:07;;;;;;;4.35;1.25;;;;;;;6.38;65.92;100453.31;5498193;26;20566;-47
2024/04/24 03:41:34;;;;;;;4.53;1.10;;;;;;;6.34;65.44;100451.53;5504131;25;20002;-47
2024/04/24 03:44:01;;;;;;;3.70;1.67;;;;;;;6.33;65.48;100449.81;5497772;25;20357;-47
2024/04/24 03:46:28;;;;;;;2.58;0.82;;;;;;;6.33;65.57;100454.06;5497165;25;19994;-45
2024/04/24 03:48:56;;;;;;;5.60;0.85;;;;;;;6.31;65.49;100446.31;5503298;25;20012;-46
2024/04/24 03:51:24;;;;;;;9.60;1.60;;;;;;;6.27;65.33;100440.25;5508187;25;20042;-49
2024/04/24 03:53:51;;;;;;;2.42;0.77;;;;;;;6.24;65.24;100449.59;5467059;25;20027;-47
2024/04/24 03:56:17;;;;;;;7.00;1.25;;;;;;;6.26;64.98;100442.78;5498366;26;20002;-46
2024/04/24 03:58:44;;;;;;;5.10;1.23;;;;;;;6.24;65.19;100440.16;5496093;26;20005;-47
2024/04/24 04:01:11;;;;;;;6.45;1.27;;;;;;;6.25;64.99;100446.19;5509708;26;20005;-46
2024/04/24 04:03:38;;;;;;;7.15;1.42;;;;;;;6.24;65.09;100439.28;5494185;25;20012;-46
2024/04/24 04:06:05;;;;;;;7.20;1.40;;;;;;;6.24;65.08;100439.28;5497272;25;20006;-46
2024/04/24 04:08:31;;;;;;;6.10;1.35;;;;;;;6.20;64.92;100432.34;5496893;25;20025;-47
2024/04/24 04:10:58;;;;;;;5.88;1.10;;;;;;;6.21;64.76;100434.09;5497158;26;20045;-46
2024/04/24 04:13:25;;;;;;;5.38;1.35;;;;;;;6.19;64.78;100430.63;5519332;25;20002;-46
2024/04/24 04:15:51;;;;;;;5.45;0.85;;;;;;;6.16;64.93;100429.72;5513953;25;20081;-47
2024/04/24 04:18:18;;;;;;;4.30;0.85;;;;;;;6.14;64.82;100422.78;5507202;26;20463;-48
2024/04/24 04:20:45;;;;;;;4.80;1.15;;;;;;;6.14;64.87;100422.78;5502643;26;19998;-44
2024/04/24 04:23:12;;;;;;;5.40;1.25;;;;;;;6.13;64.72;100421.94;5513005;26;20032;-47
2024/04/24 04:25:39;;;;;;;5.97;1.08;;;;;;;6.11;64.63;100430.47;5502594;26;20014;-48
2024/04/24 04:28:05;;;;;;;9.77;1.10;;;;;;;6.11;64.53;100422.75;5499525;26;20009;-45
2024/04/24 04:30:32;;;;;;;3.50;1.10;;;;;;;6.11;64.77;100427.91;5506135;25;20007;-47
2024/04/24 04:32:59;;;;;;;6.70;1.45;;;;;;;6.10;64.69;100427.00;5500068;25;20010;-47
2024/04/24 04:35:26;;;;;;;4.70;0.90;;;;;;;6.07;64.66;100421.81;5500393;25;19997;-46
2024/04/24 04:37:53;;;;;;;7.43;1.23;;;;;;;6.05;64.51;100423.50;5502490;25;20748;-46
2024/04/24 04:40:19;;;;;;;1.40;0.75;;;;;;;6.06;64.35;100425.22;5507105;25;20473;-51
2024/04/24 04:42:46;;;;;;;3.10;1.15;;;;;;;6.02;64.59;100419.09;5512528;25;20463;-50
2024/04/24 04:45:13;;;;;;;6.50;1.33;;;;;;;6.01;64.45;100416.50;5519146;25;20046;-49
2024/04/24 04:47:40;;;;;;;0.60;0.60;;;;;;;5.97;64.30;100414.69;5498943;25;20013;-47
2024/04/24 04:50:07;;;;;;;3.88;0.90;;;;;;;5.94;64.33;100410.34;5503282;26;20032;-49
2024/04/24 04:52:34;;;;;;;2.90;0.98;;;;;;;5.91;64.01;100405.13;5498201;25;20085;-47
2024/04/24 04:55:02;;;;;;;6.38;0.80;;;;;;;5.89;64.21;100407.69;5490057;25;20142;-48
2024/04/24 04:57:29;;;;;;;1.60;1.10;;;;;;;5.83;64.11;100406.66;5501422;25;20442;-47
2024/04/24 04:59:56;;;;;;;2.95;1.83;;;;;;;5.78;63.84;100409.16;5513933;25;20462;-47
2024/04/24 05:02:22;;;;;;;5.68;1.05;;;;;;;5.75;64.01;100401.34;5505650;25;20033;-45
2024/04/24 05:04:49;;;;;;;2.97;0.60;;;;;;;5.71;63.89;100405.53;5496893;25;20848;-45
2024/04/24 05:07:16;;;;;;;3.47;1.33;;;;;;;5.64;63.94;100399.41;5502947;25;19997;-46
2024/04/24 05:09:43;;;;;;;3.85;1.55;;;;;;;5.56;64.05;100398.34;5501834;25;20007;-47
2024/04/24 05:12:09;;;;;;;1.40;0.90;;;;;;;5.51;64.21;100394.81;5507005;25;20001;-47
2024/04/24 05:14:37;;;;;;;3.03;0.80;;;;;;;5.49;64.06;100393.91;5501124;25;20001;-46
2024/04/24 05:17:03;;;;;;;6.43;1.35;;;;;;;5.45;64.07;100399.81;5495813;25;20022;-46
2024/04/24 05:19:30;;;;;;;2.97;0.73;;;;;;;5.37;63.93;100397.91;5511638;25;20065;-47
2024/04/24 05:21:57;;;;;;;1.40;0.88;;;;;;;5.37;64.21;100395.34;5496604;25;20010;-49
2024/04/24 05:24:24;;;;;;;1.95;0.77;;;;;;;5.36;64.22;100396.19;5499515;25;20028;-47
2024/04/24 05:29:37;;;;;;;3.38;0.93;;;;;;;5.36;64.54;100401.31;5492098;26;20001;-48
2024/04/24 05:32:04;;;;;;;3.30;1.15;;;;;;;5.40;64.45;100400.56;5497506;25;20004;-46
2024/04/24 05:34:30;;;;;;;5.80;1.15;;;;;;;5.43;64.32;100397.19;5500376;26;20001;-45
2024/04/24 05:36:57;;;;;;;4.28;1.65;;;;;;;5.45;64.46;100394.66;5498604;25;20012;-47
2024/04/24 05:39:24;;;;;;;3.22;1.25;;;;;;;5.46;64.36;100387.00;5510402;26;20078;-46
2024/04/24 05:41:51;;;;;;;2.28;0.90;;;;;;;5.52;64.34;100393.97;5504075;25;20009;-46
2024/04/24 05:44:18;;;;;;;2.75;1.15;;;;;;;5.55;64.07;100391.50;5511534;25;20014;-45
2024/04/24 05:46:45;;;;;;;3.53;1.25;;;;;;;5.57;64.45;100394.94;5491464;25;20006;-45
2024/04/24 05:49:12;;;;;;;4.13;0.82;;;;;;;5.58;64.31;100394.13;5486282;25;19994;-47
2024/04/24 05:51:38;;;;;;;4.93;0.93;;;;;;;5.61;64.39;100385.63;5505700;25;20002;-46
2024/04/24 05:54:05;;;;;;;4.03;0.75;;;;;;;5.62;64.33;100388.25;5508699;25;20010;-46
2024/04/24 05:56:32;;;;;;;7.95;1.23;;;;;;;5.66;64.45;100384.03;5488068;25;20074;-47
2024/04/24 05:58:58;;;;;;;5.53;1.13;;;;;;;5.70;64.21;100382.38;5501249;25;20474;-46
2024/04/24 06:01:26;;;;;;;3.85;0.68;;;;;;;5.72;64.56;100388.44;5503873;25;20002;-47
2024/04/24 06:03:52;;;;;;;4.03;1.20;;;;;;;5.76;64.48;100385.97;5504879;25;20053;-48
2024/04/24 06:06:19;;;;;;;4.25;1.27;;;;;;;5.79;64.39;100380.91;5498529;25;20006;-47
2024/04/24 06:08:46;;;;;;;4.40;1.17;;;;;;;5.86;64.42;100392.19;5500209;25;20443;-46
2024/04/24 06:11:13;;;;;;;4.93;1.10;;;;;;;5.92;64.27;100381.19;5505653;26;20001;-48
2024/04/24 06:13:40;;;;;;;3.78;0.68;;;;;;;5.98;64.08;100388.16;5509510;25;20363;-46
2024/04/24 06:16:06;;;;;;;4.55;0.95;;;;;;;6.01;63.89;100386.50;5492106;25;20057;-47
2024/04/24 06:18:33;;;;;;;2.40;1.17;;;;;;;5.99;64.28;100385.63;5510713;26;20005;-47
2024/04/24 06:21:00;;;;;;;2.08;0.55;;;;;;;6.01;63.98;100388.22;5510221;26;20086;-47
2024/04/24 06:23:27;;;;;;;4.80;0.85;;;;;;;5.99;63.77;100377.91;5498819;25;20006;-46
2024/04/24 06:25:54;;;;;;;2.58;0.95;;;;;;;5.97;63.64;100376.09;5503484;25;20009;-46
2024/04/24 06:28:21;;;;;;;6.22;1.17;;;;;;;6.05;63.51;100382.34;5490183;25;20006;-47
2024/04/24 06:30:47;;;;;;;3.97;0.88;;;;;;;6.11;63.27;100379.03;5510077;25;20018;-46
2024/04/24 06:33:14;;;;;;;9.27;1.23;;;;;;;6.17;63.26;100376.56;5486785;25;20012;-46
2024/04/24 06:35:41;;;;;;;1.33;0.45;;;;;;;6.15;63.06;100376.53;5490231;25;20009;-46
2024/04/24 06:38:08;;;;;;;4.00;0.98;;;;;;;6.32;62.96;100376.03;5485920;25;20025;-46
2024/04/24 06:40:35;;;;;;;2.85;0.82;;;;;;;6.43;62.85;100369.38;5494034;25;20694;-48
2024/04/24 06:43:02;;;;;;;4.65;0.82;;;;;;;6.69;63.06;100368.16;5484436;25;20012;-47
2024/04/24 06:45:29;;;;;;;1.92;1.02;;;;;;;7.05;62.52;100363.59;5477569;26;20014;-47
2024/04/24 06:47:56;;;;;;;3.83;1.15;;;;;;;7.57;62.16;100373.03;5485317;25;20022;-49
2024/04/24 06:50:23;;;;;;;3.45;0.73;;;;;;;7.95;61.27;100364.06;5482366;26;20638;-46
2024/04/24 06:52:50;;;;;;;3.33;1.23;;;;;;;8.22;60.37;100363.56;5495198;26;20016;-50
2024/04/24 06:55:20;;;;;;;4.82;1.05;;;;;;;8.56;59.95;100362.25;5480348;25;20077;-47
2024/04/24 06:57:48;;;;;;;3.15;0.90;;;;;;;8.67;58.55;100362.34;5487046;25;19997;-45
2024/04/24 07:00:15;;;;;;;4.25;1.05;;;;;;;8.79;57.46;100359.03;5487033;25;20020;-47
2024/04/24 07:02:41;;;;;;;1.50;0.50;;;;;;;8.95;57.24;100358.31;5485391;26;20106;-50
2024/04/24 07:05:08;;;;;;;8.90;0.88;;;;;;;9.25;57.49;100358.53;5488213;25;20001;-48
2024/04/24 07:07:35;;;;;;;4.18;1.13;;;;;;;9.35;56.82;100359.47;5483597;25;19998;-46
2024/04/24 07:10:03;;;;;;;4.32;0.82;;;;;;;9.48;56.58;100361.31;5480140;25;20002;-50
2024/04/24 07:12:31;;;;;;;3.00;0.60;;;;;;;9.81;56.18;100363.22;5454235;25;20006;-47
2024/04/24 07:14:58;;;;;;;8.02;1.02;;;;;;;10.18;55.96;100370.28;5486545;25;20040;-48
2024/04/24 07:17:25;;;;;;;4.43;0.95;;;;;;;10.34;54.95;100359.13;5492190;25;20006;-46
2024/04/24 07:19:52;;;;;;;7.60;1.30;;;;;;;10.42;53.96;100356.56;5490777;25;20046;-47
2024/04/24 07:22:19;;;;;;;2.85;1.02;;;;;;;10.69;54.52;100360.13;5479173;25;20002;-48
2024/04/24 07:24:46;;;;;;;5.57;0.52;;;;;;;10.98;53.59;100341.13;5495429;25;20009;-48
2024/04/24 07:27:13;;;;;;;2.97;1.10;;;;;;;11.12;52.65;100361.03;5484778;25;20024;-47
2024/04/24 07:29:44;;;;;;;5.72;0.82;;;;;;;11.38;52.40;100360.16;5486285;25;20639;-48
2024/04/24 07:32:12;;;;;;;5.47;0.82;;;;;;;11.56;52.09;100360.13;5489785;25;20001;-47
2024/04/24 07:34:39;;;;;;;7.05;0.88;;;;;;;11.78;51.82;100360.06;5495549;25;20005;-50
2024/04/24 07:37:05;;;;;;;2.97;1.15;;;;;;;12.07;51.87;100361.75;5492952;26;20065;-47
2024/04/24 07:39:32;;;;;;;2.22;0.70;;;;;;;11.75;50.13;100354.88;5483551;25;20006;-48
2024/04/24 07:41:59;;;;;;;3.42;1.00;;;;;;;11.35;49.72;100360.16;5486972;25;20002;-47
2024/04/24 07:44:26;;;;;;;10.00;1.30;;;;;;;10.99;50.68;100355.84;5496982;25;20014;-50
2024/04/24 07:46:53;;;;;;;5.38;0.80;;;;;;;10.78;51.52;100360.13;5488321;26;20006;-48
2024/04/24 07:49:19;;;;;;;4.28;0.70;;;;;;;10.95;52.10;100355.84;5503515;26;19998;-48
2024/04/24 07:51:46;;;;;;;3.08;0.95;;;;;;;11.22;52.10;100360.19;5491121;26;20070;-49
2024/04/24 07:54:13;;;;;;;4.78;2.45;;;;;;;11.26;51.76;100361.03;5502782;26;20550;-50
2024/04/24 07:56:40;;;;;;;1.95;0.88;;;;;;;11.43;51.42;100358.41;5496473;26;20010;-49
2024/04/24 07:59:07;;;;;;;3.13;0.57;;;;;;;11.35;50.74;100360.16;5508430;26;20005;-47
2024/04/24 08:01:34;;;;;;;0.98;0.50;;;;;;;11.20;50.51;100359.31;5505170;26;20020;-50
2024/04/24 08:04:01;;;;;;;3.80;0.50;;;;;;;11.19;50.44;100357.56;5500919;25;20008;-49
2024/04/24 08:06:28;;;;;;;2.80;1.33;;;;;;;11.37;49.95;100358.41;5516599;25;20018;-48
2024/04/24 08:08:55;;;;;;;6.60;0.73;;;;;;;11.74;49.68;100345.38;5515520;25;20008;-52
2024/04/24 08:11:22;;;;;;;0.90;0.40;;;;;;;12.04;47.85;100348.75;5501204;25;19998;-52
2024/04/24 08:13:49;;;;;;;3.55;0.90;;;;;;;12.14;47.67;100351.31;5514929;25;20026;-48
2024/04/24 08:16:15;;;;;;;1.20;0.70;;;;;;;12.28;48.42;100349.53;5499633;25;20012;-48
2024/04/24 08:18:44;;;;;;;3.65;0.55;;;;;;;12.22;47.73;100346.97;5515289;26;20025;-49
2024/04/24 08:21:10;;;;;;;1.85;0.52;;;;;;;12.14;48.04;100351.31;5503834;26;20506;-49
2024/04/24 08:23:37;;;;;;;3.83;0.65;;;;;;;11.99;48.13;100347.03;5511054;25;20322;-46
2024/04/24 08:26:04;;;;;;;1.30;0.50;;;;;;;12.13;47.79;100336.63;5508287;26;20030;-49
2024/04/24 08:28:31;;;;;;;5.60;0.70;;;;;;;12.52;47.37;100342.47;5508772;25;20344;-47
2024/04/24 08:31:07;;;;;;;1.23;0.32;;;;;;;13.10;47.67;100339.44;5504802;25;20840;-50
2024/04/24 08:33:35;;;;;;;2.97;0.60;;;;;;;13.51;46.91;100345.16;5511483;26;20411;-46
2024/04/24 08:36:05;;;;;;;3.45;0.65;;;;;;;13.86;46.08;100330.94;5454213;26;20002;-47
2024/04/24 08:38:32;;;;;;;4.18;0.75;;;;;;;14.04;45.08;100336.78;5500406;26;20013;-48
2024/04/24 08:41:03;;;;;;;6.25;1.35;;;;;;;14.31;45.84;100337.31;5498753;26;20780;-47
2024/04/24 08:43:30;;;;;;;2.92;0.55;;;;;;;14.65;45.52;100323.78;5499115;25;20013;-46
2024/04/24 08:46:03;;;;;;;3.53;0.98;;;;;;;14.83;44.18;100324.41;5495405;26;20014;-46
2024/04/24 08:48:30;;;;;;;2.75;1.25;;;;;;;14.75;43.77;100315.81;5475828;26;20033;-51
2024/04/24 08:51:00;;;;;;;8.65;0.77;;;;;;;14.88;43.94;100320.00;5510723;26;20013;-48
2024/04/24 08:53:30;;;;;;;1.67;0.98;;;;;;;14.96;43.82;100319.00;5502908;26;20001;-49
2024/04/24 08:56:03;;;;;;;;;;;;;;;15.02;42.19;100308.47;5506777;26;20017;-49
2024/04/24 08:58:32;;;;;;;2.63;0.50;;;;;;;14.85;41.76;100317.44;5471750;26;19932;-49
2024/04/24 09:01:03;;;;;;;0.60;0.30;;;;;;;14.59;40.95;100303.03;5464305;26;20074;-50
2024/04/24 09:03:35;;;;;;;3.05;0.50;;;;;;;14.01;41.44;100305.56;5469335;26;20006;-49
2024/04/24 09:06:05;;;;;;;6.72;0.60;;;;;;;13.51;42.17;100319.16;5496078;25;20044;-51
2024/04/24 09:08:34;;;;;;;2.05;0.57;;;;;;;12.92;42.52;100314.47;5502641;25;20014;-46
2024/04/24 09:11:02;;;;;;;2.22;1.02;;;;;;;12.69;43.91;100312.91;5498612;25;20055;-49
2024/04/24 09:13:29;;;;;;;2.25;0.60;;;;;;;12.83;44.09;100321.47;5519090;25;20013;-48
2024/04/24 09:15:59;;;;;;;2.00;0.70;;;;;;;13.02;44.11;100315.25;5474028;26;20049;-48
2024/04/24 09:18:26;;;;;;;3.03;0.82;;;;;;;12.79;43.81;100313.69;5499497;25;20010;-48
2024/04/24 09:20:54;;;;;;;1.75;0.68;;;;;;;12.69;43.89;100320.72;5505498;25;20071;-47
2024/04/24 09:23:24;;;;;;;2.90;1.02;;;;;;;12.74;44.22;100316.34;5512012;25;20030;-50
2024/04/24 09:25:51;;;;;;;16.08;0.93;;;;;;;12.57;43.14;100304.31;5497949;26;20008;-49
2024/04/24 09:28:19;;;;;;;1.52;0.50;;;;;;;12.18;43.41;100306.31;5504388;25;20002;-48
2024/04/24 09:30:50;;;;;;;1.23;0.70;;;;;;;11.89;44.54;100315.06;5503485;26;20011;-48
2024/04/24 09:33:17;;;;;;;4.57;0.73;;;;;;;12.04;45.44;100314.13;5502634;25;19998;-47
2024/04/24 09:35:44;;;;;;;2.35;0.70;;;;;;;12.42;45.25;100314.81;5499783;26;20002;-50
2024/04/24 09:38:12;;;;;;;0.65;0.52;;;;;;;12.62;44.12;100311.22;5507509;26;20459;-47
2024/04/24 09:40:39;;;;;;;3.63;0.90;;;;;;;12.71;44.43;100311.19;5500029;26;20001;-47
2024/04/24 09:43:07;;;;;;;1.05;0.82;;;;;;;12.45;43.94;100299.22;5507576;25;20002;-47
2024/04/24 09:45:34;;;;;;;1.88;0.68;;;;;;;12.31;43.34;100307.97;5499005;26;20079;-47
2024/04/24 09:48:03;;;;;;;3.25;0.75;;;;;;;12.20;43.55;100296.78;5504309;26;20002;-47
2024/04/24 09:50:32;;;;;;;1.33;0.32;;;;;;;12.01;43.40;100294.25;5501430;25;20016;-48
2024/04/24 09:52:59;;;;;;;3.05;0.95;;;;;;;12.07;44.10;100296.84;5503173;26;19998;-46
2024/04/24 09:55:36;;;;;;;1.48;0.50;;;;;;;12.45;44.86;100288.81;5510321;26;20044;-51
2024/04/24 09:58:07;;;;;;;1.65;0.80;;;;;;;13.00;44.36;100291.03;5486732;25;20017;-49
2024/04/24 10:00:35;;;;;;;3.95;0.65;;;;;;;13.46;44.59;100292.31;5506993;26;20010;-48
2024/04/24 10:03:08;;;;;;;2.17;1.13;;;;;;;13.67;43.63;100290.34;5493678;26;20215;-47
2024/04/24 10:05:36;;;;;;;0.98;0.82;;;;;;;13.56;43.53;100293.09;5497710;25;20042;-46
2024/04/24 10:08:23;;;;;;;4.00;0.75;;;;;;;13.13;42.13;100291.78;5506494;26;20009;-47
2024/04/24 10:10:52;;;;;;;3.53;0.52;;;;;;;12.84;42.78;100288.56;5502439;26;20012;-50
2024/04/24 10:13:22;;;;;;;2.03;0.30;;;;;;;12.59;42.56;100296.53;5520835;25;20054;-52
2024/04/24 10:15:54;;;;;;;2.65;0.73;;;;;;;12.45;43.23;100287.09;5494571;25;20002;-51
2024/04/24 10:18:22;;;;;;;3.40;0.77;;;;;;;12.31;43.51;100287.19;5504014;25;20019;-49
2024/04/24 10:20:51;;;;;;;1.60;0.50;;;;;;;12.22;43.77;100282.03;5505072;26;20035;-48
2024/04/24 10:23:19;;;;;;;1.98;0.70;;;;;;;12.07;44.18;100283.88;5459329;26;20002;-48
2024/04/24 10:25:47;;;;;;;1.58;0.40;;;;;;;11.87;44.32;100278.72;5496791;26;20080;-49
2024/04/24 10:28:17;;;;;;;3.17;0.60;;;;;;;11.67;44.55;100274.50;5507446;26;20008;-48
2024/04/24 10:30:46;;;;;;;3.13;1.02;;;;;;;11.52;44.65;100280.56;5499553;26;20002;-47
2024/04/24 10:33:15;;;;;;;1.33;1.08;;;;;;;11.38;44.98;100278.03;5498769;26;20010;-48
2024/04/24 10:35:43;;;;;;;0.52;0.40;;;;;;;11.14;45.07;100277.19;5500068;25;20128;-47
2024/04/24 10:38:13;;;;;;;2.65;0.40;;;;;;;10.93;45.19;100275.50;5501150;26;20002;-45
2024/04/24 10:40:44;;;;;;;6.18;0.85;;;;;;;10.83;45.64;100273.75;5470424;26;20594;-45
2024/04/24 10:43:14;;;;;;;1.88;0.65;;;;;;;10.70;45.85;100273.78;5514715;25;20002;-50
2024/04/24 10:45:41;;;;;;;4.32;1.08;;;;;;;10.60;46.23;100269.47;5511254;26;19998;-46
2024/04/24 10:48:10;;;;;;;2.35;0.60;;;;;;;10.45;46.50;100273.75;5507153;25;20378;-49
2024/04/24 10:50:39;;;;;;;7.00;0.93;;;;;;;10.36;47.04;100269.38;5501655;26;20002;-48
2024/04/24 10:53:07;;;;;;;1.13;0.80;;;;;;;10.24;47.23;100259.88;5501020;26;20013;-49
2024/04/24 10:55:34;;;;;;;4.68;1.33;;;;;;;10.22;47.10;100266.78;5488273;26;20471;-46
2024/04/24 10:58:15;;;;;;;1.73;0.98;;;;;;;10.22;47.55;100258.13;5505082;26;20010;-47
2024/04/24 11:00:42;;;;;;;5.35;0.80;;;;;;;10.24;47.85;100270.22;5453098;26;20013;-46
2024/04/24 11:03:10;;;;;;;4.20;0.90;;;;;;;10.27;47.85;100270.22;5479805;26;19998;-46
2024/04/24 11:05:37;;;;;;;2.10;0.85;;;;;;;10.21;47.79;100259.00;5491131;26;20092;-50
2024/04/24 11:08:04;;;;;;;4.75;1.00;;;;;;;10.30;48.18;100264.19;5509449;26;20002;-47
2024/04/24 11:10:32;;;;;;;1.10;0.60;;;;;;;10.36;48.15;100258.16;5458389;26;20008;-47
2024/04/24 11:13:02;;;;;;;6.90;1.23;;;;;;;10.44;48.10;100255.59;5470282;26;19999;-46
2024/04/24 11:15:29;;;;;;;8.25;1.17;;;;;;;10.39;48.04;100253.00;5495953;26;20029;-50
2024/04/24 11:17:59;;;;;;;1.27;0.82;;;;;;;10.33;48.03;100246.06;5496200;26;20042;-46
2024/04/24 11:20:26;;;;;;;5.43;1.05;;;;;;;10.28;47.64;100245.22;5505820;26;20827;-49
2024/04/24 11:22:54;;;;;;;1.42;0.98;;;;;;;10.25;47.69;100251.25;5513019;25;20517;-49
2024/04/24 11:25:21;;;;;;;2.38;0.60;;;;;;;10.26;47.77;100249.50;5497605;26;20041;-47
2024/04/24 11:27:48;;;;;;;2.65;0.90;;;;;;;10.31;48.09;100246.94;5494805;25;20010;-47
2024/04/24 11:30:16;;;;;;;1.67;0.77;;;;;;;10.20;48.05;100247.78;5511702;26;20037;-46
2024/04/24 11:32:47;;;;;;;2.30;0.85;;;;;;;10.46;48.03;100241.81;5497617;26;20028;-48